sensor_id;sensor_type;location;lat;lon;timestamp;pressure;altitude;pressure_sealevel;temperature;humidity
70488;BME280;57976;48.174;16.370;2022-10-31T00:00:26;99865.33;;;13.49;100.00
70488;BME280;57976;48.174;16.370;2022-10-31T00:02:31;99867.92;;;13.50;100.00
70488;BME280;57976;48.174;16.370;2022-10-31T00:04:36;99870.95;;;13.49;100.00
70488;BME280;57976;48.174;16.370;2022-10-31T00:06:41;99869.58;;;13.48;100.00
70488;BME280;57976;48.174;16.370;2022-10-31T00:08:45;99867.97;;;13.51;100.00
70488;BME280;57976;48.174;16.370;2022-10-31T00:10:50;99869.90;;;13.51;100.00
70488;BME280;57976;48.174;16.370;2022-10-31T00:12:55;99870.32;;;13.48;100.00
70488;BME280;57976;48.174;16.370;2022-10-31T00:15:00;99870.33;;;13.46;100.00
70488;BME280;57976;48.174;16.370;2022-10-31T00:17:04;99869.37;;;13.46;100.00
70488;BME280;57976;48.174;16.370;2022-10-31T00:19:09;99871.46;;;13.44;100.00
70488;BME280;57976;48.174;16.370;2022-10-31T00:21:14;99868.83;;;13.35;100.00
70488;BME280;57976;48.174;16.370;2022-10-31T00:23:19;99869.41;;;13.28;100.00
70488;BME280;57976;48.174;16.370;2022-10-31T00:25:23;99870.61;;;13.29;100.00
70488;BME280;57976;48.174;16.370;2022-10-31T00:27:28;99871.71;;;13.26;100.00
70488;BME280;57976;48.174;16.370;2022-10-31T00:29:33;99874.20;;;13.18;100.00
70488;BME280;57976;48.174;16.370;2022-10-31T00:31:38;99876.63;;;13.11;100.00
70488;BME280;57976;48.174;16.370;2022-10-31T00:33:43;99878.77;;;13.08;100.00
70488;BME280;57976;48.174;16.370;2022-10-31T00:35:52;99876.42;;;13.11;100.00
70488;BME280;57976;48.174;16.370;2022-10-31T00:37:56;99875.68;;;13.14;100.00
70488;BME280;57976;48.174;16.370;2022-10-31T00:40:01;99876.43;;;13.18;100.00
70488;BME280;57976;48.174;16.370;2022-10-31T00:42:06;99869.44;;;13.18;100.00
70488;BME280;57976;48.174;16.370;2022-10-31T00:44:11;99869.73;;;13.20;100.00
70488;BME280;57976;48.174;16.370;2022-10-31T00:46:16;99875.83;;;13.25;100.00
70488;BME280;57976;48.174;16.370;2022-10-31T00:48:21;99876.45;;;13.28;100.00
70488;BME280;57976;48.174;16.370;2022-10-31T00:50:26;99875.91;;;13.29;100.00
70488;BME280;57976;48.174;16.370;2022-10-31T00:52:31;99876.69;;;13.30;100.00
70488;BME280;57976;48.174;16.370;2022-10-31T00:54:36;99879.17;;;13.34;100.00
70488;BME280;57976;48.174;16.370;2022-10-31T00:56:40;99876.45;;;13.35;100.00
70488;BME280;57976;48.174;16.370;2022-10-31T00:58:45;99875.83;;;13.33;100.00
70488;BME280;57976;48.174;16.370;2022-10-31T01:00:50;99880.44;;;13.31;100.00
70488;BME280;57976;48.174;16.370;2022-10-31T01:02:55;99879.91;;;13.30;100.00
70488;BME280;57976;48.174;16.370;2022-10-31T01:05:00;99875.87;;;13.28;100.00
70488;BME280;57976;48.174;16.370;2022-10-31T01:07:05;99878.14;;;13.26;100.00
70488;BME280;57976;48.174;16.370;2022-10-31T01:09:10;99874.71;;;13.26;100.00
70488;BME280;57976;48.174;16.370;2022-10-31T01:11:19;99872.16;;;13.24;100.00
70488;BME280;57976;48.174;16.370;2022-10-31T01:13:24;99875.14;;;13.25;100.00
70488;BME280;57976;48.174;16.370;2022-10-31T01:15:28;99872.37;;;13.21;100.00
70488;BME280;57976;48.174;16.370;2022-10-31T01:17:33;99873.92;;;13.20;100.00
70488;BME280;57976;48.174;16.370;2022-10-31T01:19:38;99874.76;;;13.25;100.00
70488;BME280;57976;48.174;16.370;2022-10-31T01:21:43;99871.00;;;13.29;100.00
70488;BME280;57976;48.174;16.370;2022-10-31T01:23:48;99873.03;;;13.32;100.00
70488;BME280;57976;48.174;16.370;2022-10-31T01:26:04;99869.82;;;13.36;100.00
70488;BME280;57976;48.174;16.370;2022-10-31T01:28:10;99867.69;;;13.39;100.00
70488;BME280;57976;48.174;16.370;2022-10-31T01:30:15;99865.99;;;13.42;100.00
70488;BME280;57976;48.174;16.370;2022-10-31T01:32:19;99867.88;;;13.44;100.00
70488;BME280;57976;48.174;16.370;2022-10-31T01:34:24;99869.09;;;13.44;100.00
70488;BME280;57976;48.174;16.370;2022-10-31T01:36:30;99872.75;;;13.46;100.00
70488;BME280;57976;48.174;16.370;2022-10-31T01:38:35;99872.21;;;13.47;100.00
70488;BME280;57976;48.174;16.370;2022-10-31T01:40:40;99869.41;;;13.47;100.00
70488;BME280;57976;48.174;16.370;2022-10-31T01:42:44;99872.55;;;13.44;100.00
70488;BME280;57976;48.174;16.370;2022-10-31T01:44:55;99868.30;;;13.41;100.00
70488;BME280;57976;48.174;16.370;2022-10-31T01:47:03;99873.40;;;13.37;100.00
70488;BME280;57976;48.174;16.370;2022-10-31T01:49:15;99869.79;;;13.34;100.00
70488;BME280;57976;48.174;16.370;2022-10-31T01:51:23;99864.92;;;13.33;100.00
70488;BME280;57976;48.174;16.370;2022-10-31T01:53:30;99870.08;;;13.34;100.00
70488;BME280;57976;48.174;16.370;2022-10-31T01:55:37;99863.02;;;13.34;100.00
70488;BME280;57976;48.174;16.370;2022-10-31T01:57:46;99864.39;;;13.32;100.00
70488;BME280;57976;48.174;16.370;2022-10-31T01:59:57;99862.41;;;13.29;100.00
70488;BME280;57976;48.174;16.370;2022-10-31T02:02:03;99863.98;;;13.28;100.00
70488;BME280;57976;48.174;16.370;2022-10-31T02:04:09;99864.14;;;13.30;100.00
70488;BME280;57976;48.174;16.370;2022-10-31T02:06:21;99863.39;;;13.31;100.00
70488;BME280;57976;48.174;16.370;2022-10-31T02:08:34;99863.02;;;13.28;100.00
70488;BME280;57976;48.174;16.370;2022-10-31T02:10:39;99864.23;;;13.23;100.00
70488;BME280;57976;48.174;16.370;2022-10-31T02:12:45;99864.17;;;13.22;100.00
70488;BME280;57976;48.174;16.370;2022-10-31T02:14:52;99859.11;;;13.20;100.00
70488;BME280;57976;48.174;16.370;2022-10-31T02:16:56;99855.06;;;13.17;100.00
70488;BME280;57976;48.174;16.370;2022-10-31T02:19:01;99855.52;;;13.15;100.00
70488;BME280;57976;48.174;16.370;2022-10-31T02:21:13;99852.73;;;13.15;100.00
70488;BME280;57976;48.174;16.370;2022-10-31T02:23:55;99855.64;;;13.17;100.00
70488;BME280;57976;48.174;16.370;2022-10-31T02:28:55;99860.05;;;13.16;100.00
70488;BME280;57976;48.174;16.370;2022-10-31T02:31:17;99858.48;;;13.17;100.00
70488;BME280;57976;48.174;16.370;2022-10-31T02:33:28;99858.89;;;13.14;100.00
70488;BME280;57976;48.174;16.370;2022-10-31T02:35:42;99855.40;;;13.11;100.00
70488;BME280;57976;48.174;16.370;2022-10-31T02:37:54;99856.58;;;13.10;100.00
70488;BME280;57976;48.174;16.370;2022-10-31T02:40:08;99859.05;;;13.10;100.00
70488;BME280;57976;48.174;16.370;2022-10-31T02:42:41;99858.40;;;13.12;100.00
70488;BME280;57976;48.174;16.370;2022-10-31T02:44:51;99856.05;;;13.11;100.00
70488;BME280;57976;48.174;16.370;2022-10-31T02:47:03;99851.93;;;13.11;100.00
70488;BME280;57976;48.174;16.370;2022-10-31T02:49:15;99849.67;;;13.10;100.00
70488;BME280;57976;48.174;16.370;2022-10-31T02:51:22;99851.27;;;13.10;100.00
70488;BME280;57976;48.174;16.370;2022-10-31T02:53:30;99852.50;;;13.06;100.00
70488;BME280;57976;48.174;16.370;2022-10-31T02:55:51;99851.30;;;13.05;100.00
70488;BME280;57976;48.174;16.370;2022-10-31T02:58:00;99853.25;;;13.01;100.00
70488;BME280;57976;48.174;16.370;2022-10-31T03:00:09;99855.71;;;12.99;100.00
70488;BME280;57976;48.174;16.370;2022-10-31T03:02:47;99856.03;;;12.94;100.00
70488;BME280;57976;48.174;16.370;2022-10-31T03:05:09;99856.96;;;12.89;100.00
70488;BME280;57976;48.174;16.370;2022-10-31T03:07:23;99854.62;;;12.87;100.00
70488;BME280;57976;48.174;16.370;2022-10-31T03:09:37;99854.70;;;12.91;100.00
70488;BME280;57976;48.174;16.370;2022-10-31T03:11:55;99856.66;;;12.97;100.00
70488;BME280;57976;48.174;16.370;2022-10-31T03:14:09;99857.40;;;13.02;100.00
70488;BME280;57976;48.174;16.370;2022-10-31T03:16:17;99855.50;;;13.06;100.00
70488;BME280;57976;48.174;16.370;2022-10-31T03:18:28;99859.17;;;13.12;100.00
70488;BME280;57976;48.174;16.370;2022-10-31T03:20:36;99855.36;;;13.15;100.00
70488;BME280;57976;48.174;16.370;2022-10-31T03:22:43;99855.80;;;13.16;100.00
70488;BME280;57976;48.174;16.370;2022-10-31T03:24:49;99861.27;;;13.15;100.00
70488;BME280;57976;48.174;16.370;2022-10-31T03:26:58;99862.23;;;13.17;100.00
70488;BME280;57976;48.174;16.370;2022-10-31T03:29:08;99865.02;;;13.20;100.00
70488;BME280;57976;48.174;16.370;2022-10-31T03:31:19;99868.41;;;13.23;100.00
70488;BME280;57976;48.174;16.370;2022-10-31T03:33:29;99868.63;;;13.24;100.00
70488;BME280;57976;48.174;16.370;2022-10-31T03:35:36;99869.77;;;13.22;100.00
70488;BME280;57976;48.174;16.370;2022-10-31T03:37:44;99872.67;;;13.20;100.00
70488;BME280;57976;48.174;16.370;2022-10-31T03:39:51;99871.98;;;13.21;100.00
70488;BME280;57976;48.174;16.370;2022-10-31T03:42:02;99871.94;;;13.15;100.00
70488;BME280;57976;48.174;16.370;2022-10-31T03:44:10;99874.50;;;13.12;100.00
70488;BME280;57976;48.174;16.370;2022-10-31T03:46:17;99870.45;;;13.09;100.00
70488;BME280;57976;48.174;16.370;2022-10-31T03:48:23;99873.05;;;13.09;100.00
70488;BME280;57976;48.174;16.370;2022-10-31T03:50:33;99873.15;;;13.06;100.00
70488;BME280;57976;48.174;16.370;2022-10-31T03:52:43;99871.80;;;13.00;100.00
70488;BME280;57976;48.174;16.370;2022-10-31T03:54:57;99871.91;;;12.91;100.00
70488;BME280;57976;48.174;16.370;2022-10-31T03:57:08;99869.70;;;12.82;100.00
70488;BME280;57976;48.174;16.370;2022-10-31T03:59:19;99868.16;;;12.75;100.00
70488;BME280;57976;48.174;16.370;2022-10-31T04:01:28;99864.95;;;12.70;100.00
70488;BME280;57976;48.174;16.370;2022-10-31T04:03:36;99866.69;;;12.65;100.00
70488;BME280;57976;48.174;16.370;2022-10-31T04:05:45;99870.02;;;12.60;100.00
70488;BME280;57976;48.174;16.370;2022-10-31T04:07:53;99868.44;;;12.57;100.00
70488;BME280;57976;48.174;16.370;2022-10-31T04:10:02;99870.04;;;12.55;100.00
70488;BME280;57976;48.174;16.370;2022-10-31T04:12:09;99868.97;;;12.58;100.00
70488;BME280;57976;48.174;16.370;2022-10-31T04:14:32;99873.87;;;12.59;100.00
70488;BME280;57976;48.174;16.370;2022-10-31T04:16:39;99874.04;;;12.59;100.00
70488;BME280;57976;48.174;16.370;2022-10-31T04:18:45;99877.16;;;12.58;100.00
70488;BME280;57976;48.174;16.370;2022-10-31T04:20:58;99879.69;;;12.54;100.00
70488;BME280;57976;48.174;16.370;2022-10-31T04:23:04;99883.25;;;12.51;100.00
70488;BME280;57976;48.174;16.370;2022-10-31T04:25:12;99890.39;;;12.47;100.00
70488;BME280;57976;48.174;16.370;2022-10-31T04:27:16;99889.17;;;12.42;100.00
70488;BME280;57976;48.174;16.370;2022-10-31T04:29:21;99891.46;;;12.36;100.00
70488;BME280;57976;48.174;16.370;2022-10-31T04:31:26;99893.73;;;12.34;100.00
70488;BME280;57976;48.174;16.370;2022-10-31T04:33:31;99890.66;;;12.26;100.00
70488;BME280;57976;48.174;16.370;2022-10-31T04:35:36;99892.02;;;12.20;100.00
70488;BME280;57976;48.174;16.370;2022-10-31T04:37:40;99887.27;;;12.17;100.00
70488;BME280;57976;48.174;16.370;2022-10-31T04:39:45;99891.39;;;12.17;100.00
70488;BME280;57976;48.174;16.370;2022-10-31T04:42:21;99890.92;;;12.13;100.00
70488;BME280;57976;48.174;16.370;2022-10-31T04:44:26;99892.52;;;12.07;100.00
70488;BME280;57976;48.174;16.370;2022-10-31T04:46:31;99889.64;;;11.97;100.00
70488;BME280;57976;48.174;16.370;2022-10-31T04:48:36;99895.13;;;11.89;100.00
70488;BME280;57976;48.174;16.370;2022-10-31T04:50:42;99895.19;;;11.81;100.00
70488;BME280;57976;48.174;16.370;2022-10-31T04:52:47;99896.99;;;11.75;100.00
70488;BME280;57976;48.174;16.370;2022-10-31T04:54:54;99897.20;;;11.70;100.00
70488;BME280;57976;48.174;16.370;2022-10-31T04:57:25;99898.75;;;11.66;100.00
70488;BME280;57976;48.174;16.370;2022-10-31T04:59:31;99895.42;;;11.66;100.00
70488;BME280;57976;48.174;16.370;2022-10-31T05:01:36;99899.10;;;11.67;100.00
70488;BME280;57976;48.174;16.370;2022-10-31T05:03:41;99899.06;;;11.67;100.00
70488;BME280;57976;48.174;16.370;2022-10-31T05:05:46;99900.70;;;11.69;100.00
70488;BME280;57976;48.174;16.370;2022-10-31T05:07:51;99900.94;;;11.70;100.00
70488;BME280;57976;48.174;16.370;2022-10-31T05:09:56;99902.14;;;11.72;100.00
70488;BME280;57976;48.174;16.370;2022-10-31T05:12:01;99899.27;;;11.72;100.00
70488;BME280;57976;48.174;16.370;2022-10-31T05:14:26;99899.69;;;11.79;100.00
70488;BME280;57976;48.174;16.370;2022-10-31T05:16:53;99900.08;;;11.87;100.00
70488;BME280;57976;48.174;16.370;2022-10-31T05:19:17;99896.53;;;11.92;100.00
70488;BME280;57976;48.174;16.370;2022-10-31T05:22:00;99891.10;;;11.96;100.00
70488;BME280;57976;48.174;16.370;2022-10-31T05:24:07;99897.04;;;11.98;100.00
70488;BME280;57976;48.174;16.370;2022-10-31T05:26:11;99899.11;;;11.97;100.00
70488;BME280;57976;48.174;16.370;2022-10-31T05:28:16;99900.40;;;11.94;100.00
70488;BME280;57976;48.174;16.370;2022-10-31T05:30:22;99906.77;;;11.91;100.00
70488;BME280;57976;48.174;16.370;2022-10-31T05:32:27;99904.33;;;11.90;100.00
70488;BME280;57976;48.174;16.370;2022-10-31T05:34:50;99903.22;;;11.90;100.00
70488;BME280;57976;48.174;16.370;2022-10-31T05:37:27;99898.79;;;11.90;100.00
70488;BME280;57976;48.174;16.370;2022-10-31T05:39:32;99900.64;;;11.90;100.00
70488;BME280;57976;48.174;16.370;2022-10-31T05:41:39;99900.92;;;11.90;100.00
70488;BME280;57976;48.174;16.370;2022-10-31T05:43:50;99902.98;;;11.95;100.00
70488;BME280;57976;48.174;16.370;2022-10-31T05:45:57;99903.77;;;12.01;100.00
70488;BME280;57976;48.174;16.370;2022-10-31T05:48:21;99900.73;;;12.08;100.00
70488;BME280;57976;48.174;16.370;2022-10-31T05:50:54;99902.64;;;12.09;100.00
70488;BME280;57976;48.174;16.370;2022-10-31T05:53:04;99902.31;;;12.11;100.00
70488;BME280;57976;48.174;16.370;2022-10-31T05:55:14;99900.25;;;12.14;100.00
70488;BME280;57976;48.174;16.370;2022-10-31T05:57:26;99904.08;;;12.19;100.00
70488;BME280;57976;48.174;16.370;2022-10-31T05:59:32;99901.61;;;12.21;100.00
70488;BME280;57976;48.174;16.370;2022-10-31T06:01:37;99904.45;;;12.22;100.00
70488;BME280;57976;48.174;16.370;2022-10-31T06:03:44;99907.94;;;12.22;100.00
70488;BME280;57976;48.174;16.370;2022-10-31T06:05:52;99912.67;;;12.25;100.00
70488;BME280;57976;48.174;16.370;2022-10-31T06:08:01;99914.06;;;12.28;100.00
70488;BME280;57976;48.174;16.370;2022-10-31T06:10:08;99913.94;;;12.29;100.00
70488;BME280;57976;48.174;16.370;2022-10-31T06:12:13;99917.52;;;12.29;100.00
70488;BME280;57976;48.174;16.370;2022-10-31T06:14:49;99918.64;;;12.30;100.00
70488;BME280;57976;48.174;16.370;2022-10-31T06:16:55;99919.45;;;12.31;100.00
70488;BME280;57976;48.174;16.370;2022-10-31T06:19:18;99925.50;;;12.32;100.00
70488;BME280;57976;48.174;16.370;2022-10-31T06:21:23;99923.99;;;12.34;100.00
70488;BME280;57976;48.174;16.370;2022-10-31T06:23:28;99928.80;;;12.34;100.00
70488;BME280;57976;48.174;16.370;2022-10-31T06:26:00;99931.96;;;12.33;100.00
70488;BME280;57976;48.174;16.370;2022-10-31T06:28:06;99934.35;;;12.33;100.00
70488;BME280;57976;48.174;16.370;2022-10-31T06:30:31;99936.89;;;12.32;100.00
70488;BME280;57976;48.174;16.370;2022-10-31T06:32:35;99936.36;;;12.33;100.00
70488;BME280;57976;48.174;16.370;2022-10-31T06:34:40;99937.77;;;12.36;100.00
70488;BME280;57976;48.174;16.370;2022-10-31T06:36:46;99934.92;;;12.42;100.00
70488;BME280;57976;48.174;16.370;2022-10-31T06:38:52;99937.10;;;12.45;100.00
70488;BME280;57976;48.174;16.370;2022-10-31T06:41:01;99938.69;;;12.45;100.00
70488;BME280;57976;48.174;16.370;2022-10-31T06:43:11;99938.48;;;12.44;100.00
70488;BME280;57976;48.174;16.370;2022-10-31T06:45:16;99939.40;;;12.47;100.00
70488;BME280;57976;48.174;16.370;2022-10-31T06:47:53;99939.40;;;12.48;100.00
70488;BME280;57976;48.174;16.370;2022-10-31T06:50:35;99937.73;;;12.52;100.00
70488;BME280;57976;48.174;16.370;2022-10-31T06:52:39;99936.55;;;12.55;100.00
70488;BME280;57976;48.174;16.370;2022-10-31T06:54:45;99937.48;;;12.61;100.00
70488;BME280;57976;48.174;16.370;2022-10-31T06:56:50;99939.30;;;12.67;100.00
70488;BME280;57976;48.174;16.370;2022-10-31T06:58:55;99940.59;;;12.74;100.00
70488;BME280;57976;48.174;16.370;2022-10-31T07:01:19;99943.64;;;12.77;100.00
70488;BME280;57976;48.174;16.370;2022-10-31T07:03:25;99942.59;;;12.80;100.00
70488;BME280;57976;48.174;16.370;2022-10-31T07:05:30;99950.67;;;12.85;100.00
70488;BME280;57976;48.174;16.370;2022-10-31T07:07:38;99948.14;;;12.90;100.00
70488;BME280;57976;48.174;16.370;2022-10-31T07:09:44;99948.65;;;12.96;100.00
70488;BME280;57976;48.174;16.370;2022-10-31T07:11:54;99951.58;;;12.94;100.00
70488;BME280;57976;48.174;16.370;2022-10-31T07:13:59;99954.97;;;12.91;100.00
70488;BME280;57976;48.174;16.370;2022-10-31T07:16:06;99954.09;;;12.94;100.00
70488;BME280;57976;48.174;16.370;2022-10-31T07:18:13;99955.64;;;12.93;100.00
70488;BME280;57976;48.174;16.370;2022-10-31T07:20:18;99954.96;;;12.97;100.00
70488;BME280;57976;48.174;16.370;2022-10-31T07:22:24;99952.66;;;13.00;100.00
70488;BME280;57976;48.174;16.370;2022-10-31T07:24:29;99955.55;;;13.05;100.00
70488;BME280;57976;48.174;16.370;2022-10-31T07:26:52;99951.88;;;13.07;100.00
70488;BME280;57976;48.174;16.370;2022-10-31T07:28:57;99953.26;;;13.10;100.00
70488;BME280;57976;48.174;16.370;2022-10-31T07:31:01;99953.92;;;13.12;100.00
70488;BME280;57976;48.174;16.370;2022-10-31T07:33:08;99950.61;;;13.08;100.00
70488;BME280;57976;48.174;16.370;2022-10-31T07:35:31;99956.29;;;13.06;100.00
70488;BME280;57976;48.174;16.370;2022-10-31T07:37:37;99956.40;;;13.06;100.00
70488;BME280;57976;48.174;16.370;2022-10-31T07:39:42;99958.27;;;13.11;100.00
70488;BME280;57976;48.174;16.370;2022-10-31T07:41:49;99960.15;;;13.16;100.00
70488;BME280;57976;48.174;16.370;2022-10-31T07:43:57;99965.48;;;13.21;100.00
70488;BME280;57976;48.174;16.370;2022-10-31T07:46:30;99963.09;;;13.24;100.00
70488;BME280;57976;48.174;16.370;2022-10-31T07:49:12;99964.54;;;13.24;100.00
70488;BME280;57976;48.174;16.370;2022-10-31T07:51:39;99965.57;;;13.27;100.00
70488;BME280;57976;48.174;16.370;2022-10-31T07:53:49;99963.23;;;13.31;100.00
70488;BME280;57976;48.174;16.370;2022-10-31T07:56:01;99965.30;;;13.39;100.00
70488;BME280;57976;48.174;16.370;2022-10-31T07:58:10;99964.60;;;13.46;100.00
70488;BME280;57976;48.174;16.370;2022-10-31T08:00:16;99966.23;;;13.55;100.00
70488;BME280;57976;48.174;16.370;2022-10-31T08:02:26;99968.84;;;13.64;100.00
70488;BME280;57976;48.174;16.370;2022-10-31T08:04:55;99969.55;;;13.68;100.00
70488;BME280;57976;48.174;16.370;2022-10-31T08:07:26;99968.47;;;13.66;100.00
70488;BME280;57976;48.174;16.370;2022-10-31T08:09:37;99968.63;;;13.59;100.00
70488;BME280;57976;48.174;16.370;2022-10-31T08:11:54;99966.70;;;13.56;100.00
70488;BME280;57976;48.174;16.370;2022-10-31T08:13:59;99969.12;;;13.58;100.00
70488;BME280;57976;48.174;16.370;2022-10-31T08:16:04;99965.52;;;13.57;100.00
70488;BME280;57976;48.174;16.370;2022-10-31T08:18:14;99965.30;;;13.56;100.00
70488;BME280;57976;48.174;16.370;2022-10-31T08:20:19;99962.23;;;13.53;100.00
70488;BME280;57976;48.174;16.370;2022-10-31T08:22:24;99964.09;;;13.53;100.00
70488;BME280;57976;48.174;16.370;2022-10-31T08:24:30;99965.49;;;13.56;100.00
70488;BME280;57976;48.174;16.370;2022-10-31T08:26:35;99962.21;;;13.57;100.00
70488;BME280;57976;48.174;16.370;2022-10-31T08:28:40;99961.05;;;13.62;100.00
70488;BME280;57976;48.174;16.370;2022-10-31T08:30:46;99962.83;;;13.63;100.00
70488;BME280;57976;48.174;16.370;2022-10-31T08:33:13;99963.28;;;13.64;100.00
70488;BME280;57976;48.174;16.370;2022-10-31T08:35:59;99960.85;;;13.66;100.00
70488;BME280;57976;48.174;16.370;2022-10-31T08:38:24;99958.21;;;13.66;100.00
70488;BME280;57976;48.174;16.370;2022-10-31T08:40:30;99959.74;;;13.68;100.00
70488;BME280;57976;48.174;16.370;2022-10-31T08:42:35;99957.71;;;13.72;100.00
70488;BME280;57976;48.174;16.370;2022-10-31T08:44:40;99954.98;;;13.75;100.00
70488;BME280;57976;48.174;16.370;2022-10-31T08:46:46;99953.16;;;13.77;100.00
70488;BME280;57976;48.174;16.370;2022-10-31T08:48:51;99954.30;;;13.77;100.00
70488;BME280;57976;48.174;16.370;2022-10-31T08:50:58;99954.30;;;13.79;100.00
70488;BME280;57976;48.174;16.370;2022-10-31T08:53:04;99952.74;;;13.81;100.00
70488;BME280;57976;48.174;16.370;2022-10-31T08:55:10;99948.45;;;13.85;100.00
70488;BME280;57976;48.174;16.370;2022-10-31T08:57:38;99948.78;;;13.86;100.00
70488;BME280;57976;48.174;16.370;2022-10-31T08:59:43;99950.27;;;13.86;100.00
70488;BME280;57976;48.174;16.370;2022-10-31T09:01:57;99951.09;;;13.86;100.00
70488;BME280;57976;48.174;16.370;2022-10-31T09:04:02;99952.33;;;13.89;100.00
70488;BME280;57976;48.174;16.370;2022-10-31T09:06:10;99950.59;;;13.94;100.00
70488;BME280;57976;48.174;16.370;2022-10-31T09:08:15;99956.64;;;13.98;100.00
70488;BME280;57976;48.174;16.370;2022-10-31T09:10:28;99952.60;;;14.00;100.00
70488;BME280;57976;48.174;16.370;2022-10-31T09:12:33;99951.20;;;14.01;100.00
70488;BME280;57976;48.174;16.370;2022-10-31T09:14:58;99953.27;;;14.02;100.00
70488;BME280;57976;48.174;16.370;2022-10-31T09:17:22;99958.50;;;14.03;100.00
70488;BME280;57976;48.174;16.370;2022-10-31T09:19:49;99953.39;;;14.03;100.00
70488;BME280;57976;48.174;16.370;2022-10-31T09:22:06;99957.02;;;14.03;100.00
70488;BME280;57976;48.174;16.370;2022-10-31T09:24:11;99958.78;;;13.99;100.00
70488;BME280;57976;48.174;16.370;2022-10-31T09:26:18;99959.86;;;13.95;100.00
70488;BME280;57976;48.174;16.370;2022-10-31T09:28:55;99958.46;;;13.95;100.00
70488;BME280;57976;48.174;16.370;2022-10-31T09:31:01;99959.41;;;13.97;100.00
70488;BME280;57976;48.174;16.370;2022-10-31T09:33:37;99957.63;;;14.00;100.00
70488;BME280;57976;48.174;16.370;2022-10-31T09:36:02;99954.29;;;14.01;100.00
70488;BME280;57976;48.174;16.370;2022-10-31T09:38:10;99959.33;;;14.02;100.00
70488;BME280;57976;48.174;16.370;2022-10-31T09:40:19;99955.20;;;14.06;100.00
70488;BME280;57976;48.174;16.370;2022-10-31T09:42:47;99953.27;;;14.09;100.00
70488;BME280;57976;48.174;16.370;2022-10-31T09:45:02;99953.99;;;14.09;100.00
70488;BME280;57976;48.174;16.370;2022-10-31T09:47:21;99953.63;;;14.13;100.00
70488;BME280;57976;48.174;16.370;2022-10-31T09:50:02;99950.03;;;14.17;100.00
70488;BME280;57976;48.174;16.370;2022-10-31T09:52:16;99950.36;;;14.20;100.00
70488;BME280;57976;48.174;16.370;2022-10-31T09:54:28;99951.61;;;14.13;100.00
70488;BME280;57976;48.174;16.370;2022-10-31T09:56:36;99950.90;;;14.11;100.00
70488;BME280;57976;48.174;16.370;2022-10-31T09:58:44;99952.42;;;14.14;100.00
70488;BME280;57976;48.174;16.370;2022-10-31T10:00:49;99949.75;;;14.15;100.00
70488;BME280;57976;48.174;16.370;2022-10-31T10:02:59;99948.51;;;14.19;100.00
70488;BME280;57976;48.174;16.370;2022-10-31T10:05:10;99947.55;;;14.20;100.00
70488;BME280;57976;48.174;16.370;2022-10-31T10:07:23;99949.79;;;14.16;100.00
70488;BME280;57976;48.174;16.370;2022-10-31T10:09:49;99949.66;;;14.13;100.00
70488;BME280;57976;48.174;16.370;2022-10-31T10:12:19;99945.80;;;14.09;100.00
70488;BME280;57976;48.174;16.370;2022-10-31T10:14:34;99944.27;;;14.08;100.00
70488;BME280;57976;48.174;16.370;2022-10-31T10:16:54;99944.01;;;14.10;100.00
70488;BME280;57976;48.174;16.370;2022-10-31T10:19:11;99946.58;;;14.15;100.00
70488;BME280;57976;48.174;16.370;2022-10-31T10:21:26;99944.34;;;14.18;100.00
70488;BME280;57976;48.174;16.370;2022-10-31T10:23:46;99944.98;;;14.15;100.00
70488;BME280;57976;48.174;16.370;2022-10-31T10:26:01;99948.19;;;14.13;100.00
70488;BME280;57976;48.174;16.370;2022-10-31T10:28:20;99946.54;;;14.16;100.00
70488;BME280;57976;48.174;16.370;2022-10-31T10:30:32;99949.48;;;14.22;100.00
70488;BME280;57976;48.174;16.370;2022-10-31T10:32:42;99948.45;;;14.27;100.00
70488;BME280;57976;48.174;16.370;2022-10-31T10:34:59;99939.85;;;14.31;100.00
70488;BME280;57976;48.174;16.370;2022-10-31T10:37:12;99938.20;;;14.35;100.00
70488;BME280;57976;48.174;16.370;2022-10-31T10:39:20;99935.06;;;14.37;100.00
70488;BME280;57976;48.174;16.370;2022-10-31T10:41:30;99934.11;;;14.38;100.00
70488;BME280;57976;48.174;16.370;2022-10-31T10:43:38;99933.27;;;14.40;100.00
70488;BME280;57976;48.174;16.370;2022-10-31T10:45:48;99937.02;;;14.43;100.00
70488;BME280;57976;48.174;16.370;2022-10-31T10:48:05;99934.81;;;14.49;100.00
70488;BME280;57976;48.174;16.370;2022-10-31T10:50:15;99929.31;;;14.54;100.00
70488;BME280;57976;48.174;16.370;2022-10-31T10:52:31;99929.02;;;14.55;100.00
70488;BME280;57976;48.174;16.370;2022-10-31T10:55:15;99922.80;;;14.51;100.00
70488;BME280;57976;48.174;16.370;2022-10-31T10:57:41;99921.31;;;14.42;100.00
70488;BME280;57976;48.174;16.370;2022-10-31T10:59:48;99920.95;;;14.36;100.00
70488;BME280;57976;48.174;16.370;2022-10-31T11:01:53;99922.73;;;14.36;100.00
70488;BME280;57976;48.174;16.370;2022-10-31T11:03:58;99924.08;;;14.39;100.00
70488;BME280;57976;48.174;16.370;2022-10-31T11:06:18;99919.42;;;14.39;100.00
70488;BME280;57976;48.174;16.370;2022-10-31T11:08:27;99917.44;;;14.39;100.00
70488;BME280;57976;48.174;16.370;2022-10-31T11:10:32;99918.70;;;14.44;100.00
70488;BME280;57976;48.174;16.370;2022-10-31T11:12:37;99922.61;;;14.48;100.00
70488;BME280;57976;48.174;16.370;2022-10-31T11:14:47;99918.77;;;14.49;100.00
70488;BME280;57976;48.174;16.370;2022-10-31T11:16:55;99918.68;;;14.49;100.00
70488;BME280;57976;48.174;16.370;2022-10-31T11:19:16;99916.20;;;14.50;100.00